Gruyeres Airport LSGT

Flugplatz Daten

Name: Gruyeres Airport

Ident: LSGT

Lat: 46,59420013

Long: 7,094439983

Platzhöhe: 2257 ft

IataCode:

City:

Metar

2022/07/26 11:56
KMMT 261156Z 21005KT 10SM FEW010 FEW150 SCT250 26/23 A3012 RMK AO2A ESTMD WND ALSGT T/TD SLPNO $

Taf

Gewünschte Webcam nicht vorhanden? Dann fügen Sie eine hinzu. Sie wird dann so schnell wie möglich freigeschaltet
Url: Title: